Terminal Aerodrome Forecast
Issued by NWS Houston/Galveston TX

Home | Current Version | Previous Version | Text Only | Print | Product List | Glossary On
Versions: 1 2 3 4 5 6 7 8 9 10 11 12 13 14 15 16 17 18 19 20 21 22 23 24 25 26 27 28 29
000
FTUS44 KHGX 280520
TAFHOU
TAF
KHOU 280520Z 2806/2906 16004KT P6SM OVC007
      TEMPO 2809/2813 BKN012
     FM281300 12009KT P6SM BKN025
     FM281700 14014KT P6SM SCT040
     FM290200 13010KT 6SM BR SCT007 BKN015=

USA.gov is the U.S. government's official web portal to all federal, state and local government web resources and services.